Terminal Aerodrome Forecast
Issued by NWS Greer, SC

Home | Current Version | Previous Version | Text Only | Print | Product List | Glossary On
Versions: 1 2 3 4 5 6 7 8 9 10 11 12 13 14 15 16 17 18 19 20 21 22 23 24 25 26 27 28 29 30 31 32 33 34 35 36 37 38 39 40 41 42 43 44 45 46 47 48
000
FTUS42 KGSP 292340
TAFAVL
TAF
KAVL 292340Z 3000/3024 16004KT P6SM SKC
     FM300800 15004KT P6SM BKN050
     FM301000 15005KT 4SM BR BKN060
     FM301300 15005KT 4SM BR BKN015 PROB30 3015/3021 3SM -RA BR
      OVC008
     FM302100 15007KT 4SM -RA OVC008=

USA.gov is the U.S. government's official web portal to all federal, state and local government web resources and services.